sensor_id;sensor_type;location;lat;lon;timestamp;P1;P4;P2;P0;N10;N4;N25;N1;N05;TS
70689;SPS30;58266;52.166;5.290;2023-02-04T00:00:55;6.51;6.23;4.84;2.94;23.79;23.74;23.39;21.50;16.33;0.85
70689;SPS30;58266;52.166;5.290;2023-02-04T00:02:55;6.32;6.05;4.70;2.87;23.17;23.12;22.78;20.96;15.94;0.84
70689;SPS30;58266;52.166;5.290;2023-02-04T00:04:55;5.86;5.60;4.31;2.57;20.76;20.72;20.39;18.65;14.02;0.86
70689;SPS30;58266;52.166;5.290;2023-02-04T00:06:55;5.91;5.65;4.32;2.53;20.47;20.42;20.08;18.29;13.63;0.88
70689;SPS30;58266;52.166;5.290;2023-02-04T00:08:55;6.18;5.90;4.49;2.61;21.09;21.04;20.68;18.79;13.93;0.89
70689;SPS30;58266;52.166;5.290;2023-02-04T00:10:56;6.44;6.15;4.68;2.72;22.04;21.98;21.62;19.65;14.58;0.88
70689;SPS30;58266;52.166;5.290;2023-02-04T00:12:56;6.10;5.82;4.39;2.48;20.10;20.05;19.69;17.77;12.98;0.89
70689;SPS30;58266;52.166;5.290;2023-02-04T00:14:56;6.73;6.42;4.85;2.75;22.25;22.19;21.80;19.69;14.41;0.89
70689;SPS30;58266;52.166;5.290;2023-02-04T00:16:56;6.29;6.00;4.55;2.62;21.21;21.15;20.79;18.85;13.91;0.87
70689;SPS30;58266;52.166;5.290;2023-02-04T00:18:56;6.14;5.86;4.47;2.60;21.04;20.99;20.64;18.77;13.93;0.88
70689;SPS30;58266;52.166;5.290;2023-02-04T00:20:56;6.44;6.13;4.59;2.54;20.57;20.51;20.12;18.05;13.02;0.91
70689;SPS30;58266;52.166;5.290;2023-02-04T00:22:56;6.08;5.79;4.35;2.42;19.65;19.59;19.23;17.30;12.54;0.90
70689;SPS30;58266;52.166;5.290;2023-02-04T00:24:56;6.45;6.15;4.62;2.58;20.94;20.89;20.50;18.45;13.40;0.89
70689;SPS30;58266;52.166;5.290;2023-02-04T00:26:56;7.71;7.34;5.45;2.95;23.93;23.86;23.38;20.86;14.85;0.91
70689;SPS30;58266;52.166;5.290;2023-02-04T00:28:57;6.42;6.11;4.56;2.50;20.30;20.24;19.85;17.77;12.76;0.91
70689;SPS30;58266;52.166;5.290;2023-02-04T00:30:57;6.90;6.57;4.95;2.78;22.51;22.45;22.04;19.85;14.45;0.88
70689;SPS30;58266;52.166;5.290;2023-02-04T00:32:57;6.28;5.99;4.52;2.56;20.73;20.68;20.31;18.34;13.42;0.89
70689;SPS30;58266;52.166;5.290;2023-02-04T00:34:57;7.21;6.87;5.20;2.96;23.99;23.93;23.51;21.26;15.61;0.87
70689;SPS30;58266;52.166;5.290;2023-02-04T00:36:57;6.39;6.09;4.60;2.62;21.20;21.14;20.77;18.78;13.76;0.87
70689;SPS30;58266;52.166;5.290;2023-02-04T00:38:57;6.51;6.21;4.72;2.73;22.07;22.02;21.64;19.64;14.52;0.86
70689;SPS30;58266;52.166;5.290;2023-02-04T00:40:57;6.38;6.09;4.62;2.66;21.56;21.50;21.13;19.17;14.15;0.88
70689;SPS30;58266;52.166;5.290;2023-02-04T00:42:58;7.26;6.92;5.22;2.96;23.95;23.88;23.46;21.18;15.48;0.90
70689;SPS30;58266;52.166;5.290;2023-02-04T00:44:58;6.50;6.19;4.66;2.61;21.18;21.13;20.74;18.68;13.59;0.91
70689;SPS30;58266;52.166;5.290;2023-02-04T00:46:58;7.49;7.12;5.25;2.79;22.63;22.56;22.09;19.60;13.78;0.94
70689;SPS30;58266;52.166;5.290;2023-02-04T00:48:58;7.01;6.67;4.95;2.67;21.65;21.58;21.15;18.85;13.39;0.92
70689;SPS30;58266;52.166;5.290;2023-02-04T00:50:58;6.11;5.81;4.32;2.34;18.96;18.91;18.53;16.53;11.77;0.94
70689;SPS30;58266;52.166;5.290;2023-02-04T00:52:58;7.01;6.67;4.97;2.73;22.12;22.05;21.63;19.36;13.89;0.93
70689;SPS30;58266;52.166;5.290;2023-02-04T00:54:58;7.05;6.70;4.98;2.69;21.80;21.74;21.31;19.00;13.51;0.93
70689;SPS30;58266;52.166;5.290;2023-02-04T00:56:58;7.58;7.21;5.37;2.93;23.73;23.66;23.20;20.73;14.82;0.91
70689;SPS30;58266;52.166;5.290;2023-02-04T00:58:58;6.96;6.62;4.89;2.61;21.15;21.09;20.66;18.35;12.93;0.93
70689;SPS30;58266;52.166;5.290;2023-02-04T01:00:58;7.42;7.05;5.18;2.71;22.06;21.99;21.52;19.02;13.26;0.95
70689;SPS30;58266;52.166;5.290;2023-02-04T01:02:59;7.51;7.12;5.18;2.63;21.35;21.28;20.80;18.20;12.41;0.97
70689;SPS30;58266;52.166;5.290;2023-02-04T01:04:59;8.17;7.75;5.66;2.92;23.70;23.62;23.10;20.31;13.99;0.96
70689;SPS30;58266;52.166;5.290;2023-02-04T01:06:59;7.46;7.09;5.26;2.84;23.04;22.97;22.51;20.07;14.26;0.93
70689;SPS30;58266;52.166;5.290;2023-02-04T01:08:59;7.44;7.08;5.27;2.87;23.27;23.21;22.75;20.33;14.53;0.91
70689;SPS30;58266;52.166;5.290;2023-02-04T01:10:59;6.93;6.60;4.92;2.70;21.94;21.87;21.45;19.22;13.81;0.92
70689;SPS30;58266;52.166;5.290;2023-02-04T01:12:59;7.19;6.84;5.07;2.73;22.17;22.10;21.66;19.29;13.69;0.92
70689;SPS30;58266;52.166;5.290;2023-02-04T01:14:59;7.37;7.01;5.23;2.86;23.18;23.11;22.66;20.28;14.52;0.91
70689;SPS30;58266;52.166;5.290;2023-02-04T01:17:00;7.04;6.70;4.96;2.67;21.67;21.61;21.17;18.86;13.37;0.92
70689;SPS30;58266;52.166;5.290;2023-02-04T01:19:00;6.96;6.61;4.89;2.60;21.14;21.07;20.64;18.33;12.92;0.93
70689;SPS30;58266;52.166;5.290;2023-02-04T01:21:00;7.72;7.33;5.40;2.86;23.22;23.15;22.66;20.09;14.10;0.94
70689;SPS30;58266;52.166;5.290;2023-02-04T01:23:00;7.26;6.91;5.14;2.80;22.69;22.62;22.18;19.81;14.15;0.93
70689;SPS30;58266;52.166;5.290;2023-02-04T01:25:00;7.94;7.54;5.56;2.95;23.96;23.88;23.39;20.74;14.58;0.96
70689;SPS30;58266;52.166;5.290;2023-02-04T01:27:01;8.18;7.77;5.70;2.97;24.15;24.08;23.56;20.79;14.45;0.96
70689;SPS30;58266;52.166;5.290;2023-02-04T01:29:01;8.77;8.31;6.02;3.01;24.54;24.45;23.88;20.82;14.06;0.98
70689;SPS30;58266;52.166;5.290;2023-02-04T01:31:01;8.62;8.17;5.92;2.97;24.16;24.07;23.51;20.51;13.87;0.97
70689;SPS30;58266;52.166;5.290;2023-02-04T01:33:01;7.86;7.45;5.40;2.71;22.03;21.95;21.44;18.70;12.64;0.99
70689;SPS30;58266;52.166;5.290;2023-02-04T01:35:01;8.18;7.76;5.70;2.97;24.16;24.08;23.56;20.80;14.47;0.94
70689;SPS30;58266;52.166;5.290;2023-02-04T01:37:02;8.10;7.70;5.70;3.04;24.69;24.62;24.11;21.43;15.13;0.92
70689;SPS30;58266;52.166;5.290;2023-02-04T01:39:02;8.18;7.77;5.75;3.07;24.90;24.82;24.31;21.61;15.25;0.92
70689;SPS30;58266;52.166;5.290;2023-02-04T01:41:02;8.40;7.97;5.81;2.98;24.20;24.12;23.57;20.70;14.20;0.95
70689;SPS30;58266;52.166;5.290;2023-02-04T01:43:03;8.44;7.99;5.76;2.83;23.03;22.95;22.39;19.41;12.92;0.99
70689;SPS30;58266;52.166;5.290;2023-02-04T01:45:05;8.64;8.18;5.88;2.88;23.45;23.36;22.79;19.73;13.08;0.99
70689;SPS30;58266;52.166;5.290;2023-02-04T01:47:06;8.79;8.31;5.93;2.83;23.05;22.96;22.37;19.20;12.46;1.00
70689;SPS30;58266;52.166;5.290;2023-02-04T01:49:06;9.33;8.82;6.29;2.99;24.39;24.29;23.66;20.29;13.15;1.00
70689;SPS30;58266;52.166;5.290;2023-02-04T01:51:09;7.61;7.21;5.22;2.61;21.25;21.17;20.67;18.02;12.16;0.98
70689;SPS30;58266;52.166;5.290;2023-02-04T01:53:11;7.80;7.40;5.40;2.78;22.60;22.52;22.02;19.36;13.33;0.96
70689;SPS30;58266;52.166;5.290;2023-02-04T01:55:16;8.13;7.71;5.62;2.87;23.34;23.27;22.74;19.95;13.66;0.96
70689;SPS30;58266;52.166;5.290;2023-02-04T01:57:17;8.12;7.71;5.63;2.89;23.49;23.41;22.89;20.12;13.83;0.95
70689;SPS30;58266;52.166;5.290;2023-02-04T01:59:17;9.04;8.58;6.25;3.19;25.97;25.89;25.30;22.20;15.21;0.95
70689;SPS30;58266;52.166;5.290;2023-02-04T02:03:32;8.33;7.89;5.72;2.86;23.29;23.21;22.66;19.76;13.34;0.98
70689;SPS30;58266;52.166;5.290;2023-02-04T02:05:38;7.94;7.52;5.43;2.69;21.93;21.85;21.33;18.54;12.43;0.98
70689;SPS30;58266;52.166;5.290;2023-02-04T02:07:39;8.14;7.71;5.58;2.78;22.60;22.52;21.98;19.14;12.87;0.98
70689;SPS30;58266;52.166;5.290;2023-02-04T02:09:39;8.95;8.49;6.17;3.13;25.46;25.37;24.79;21.70;14.79;0.97
70689;SPS30;58266;52.166;5.290;2023-02-04T02:11:39;9.24;8.76;6.34;3.18;25.86;25.77;25.16;21.94;14.82;0.97
70689;SPS30;58266;52.166;5.290;2023-02-04T02:13:40;9.51;9.02;6.57;3.36;27.32;27.23;26.61;23.35;16.00;0.94
70689;SPS30;58266;52.166;5.290;2023-02-04T02:15:40;8.87;8.41;6.12;3.11;25.31;25.23;24.65;21.60;14.75;0.96
70689;SPS30;58266;52.166;5.290;2023-02-04T02:17:40;8.49;8.07;5.97;3.18;25.83;25.75;25.23;22.41;15.81;0.92
70689;SPS30;58266;52.166;5.290;2023-02-04T02:19:41;8.78;8.36;6.26;3.46;28.09;28.01;27.48;24.67;17.81;0.90
70689;SPS30;58266;52.166;5.290;2023-02-04T02:22:17;7.61;7.25;5.47;3.09;25.00;24.94;24.49;22.10;16.13;0.88
70689;SPS30;58266;52.166;5.290;2023-02-04T02:24:22;8.18;7.79;5.85;3.26;26.42;26.35;25.86;23.26;16.85;0.89
70689;SPS30;58266;52.166;5.290;2023-02-04T02:26:23;8.01;7.66;5.92;3.56;28.77;28.71;28.27;25.92;19.58;0.85
70689;SPS30;58266;52.166;5.290;2023-02-04T02:28:24;7.40;7.10;5.60;3.54;28.59;28.53;28.15;26.12;20.20;0.82
70689;SPS30;58266;52.166;5.290;2023-02-04T02:30:24;7.58;7.27;5.72;3.60;29.02;28.96;28.57;26.47;20.42;0.83
70689;SPS30;58266;52.166;5.290;2023-02-04T02:32:27;7.66;7.35;5.78;3.64;29.40;29.34;28.94;26.82;20.71;0.84
70689;SPS30;58266;52.166;5.290;2023-02-04T02:34:27;7.41;7.10;5.54;3.41;27.57;27.51;27.12;25.01;19.11;0.86
70689;SPS30;58266;52.166;5.290;2023-02-04T02:36:28;7.74;7.40;5.71;3.44;27.77;27.71;27.28;25.01;18.88;0.86
70689;SPS30;58266;52.166;5.290;2023-02-04T02:38:28;8.08;7.73;5.95;3.55;28.73;28.66;28.21;25.82;19.42;0.87
70689;SPS30;58266;52.166;5.290;2023-02-04T02:40:28;7.93;7.58;5.84;3.48;28.14;28.07;27.63;25.28;19.01;0.87
70689;SPS30;58266;52.166;5.290;2023-02-04T02:42:28;7.20;6.89;5.30;3.16;25.59;25.53;25.13;22.99;17.30;0.88
70689;SPS30;58266;52.166;5.290;2023-02-04T02:44:30;8.05;7.70;5.93;3.53;28.58;28.52;28.07;25.68;19.31;0.86
70689;SPS30;58266;52.166;5.290;2023-02-04T02:46:31;8.79;8.39;6.39;3.71;30.05;29.97;29.47;26.78;19.86;0.87
70689;SPS30;58266;52.166;5.290;2023-02-04T02:48:32;7.70;7.36;5.67;3.39;27.37;27.31;26.88;24.61;18.51;0.85
70689;SPS30;58266;52.166;5.290;2023-02-04T02:50:32;8.34;7.96;6.06;3.51;28.43;28.36;27.88;25.33;18.76;0.88
70689;SPS30;58266;52.166;5.290;2023-02-04T02:52:32;7.29;6.95;5.29;3.05;24.69;24.62;24.20;21.96;16.23;0.87
70689;SPS30;58266;52.166;5.290;2023-02-04T02:54:32;9.68;9.20;6.81;3.65;29.59;29.50;28.90;25.70;18.17;0.92
70689;SPS30;58266;52.166;5.290;2023-02-04T02:56:33;9.17;8.72;6.51;3.57;28.94;28.86;28.31;25.34;18.19;0.90
70689;SPS30;58266;52.166;5.290;2023-02-04T02:58:33;8.60;8.21;6.22;3.56;28.79;28.71;28.21;25.54;18.78;0.87
70689;SPS30;58266;52.166;5.290;2023-02-04T03:00:34;7.99;7.62;5.79;3.33;26.93;26.86;26.40;23.94;17.65;0.88
70689;SPS30;58266;52.166;5.290;2023-02-04T03:02:34;7.45;7.12;5.46;3.23;26.14;26.07;25.65;23.42;17.54;0.86
70689;SPS30;58266;52.166;5.290;2023-02-04T03:04:36;7.87;7.53;5.81;3.48;28.10;28.04;27.60;25.28;19.05;0.85
70689;SPS30;58266;52.166;5.290;2023-02-04T03:06:38;9.17;8.75;6.63;3.80;30.75;30.67;30.13;27.29;20.09;0.89
70689;SPS30;58266;52.166;5.290;2023-02-04T03:08:39;8.95;8.54;6.51;3.77;30.54;30.47;29.95;27.22;20.17;0.88
70689;SPS30;58266;52.166;5.290;2023-02-04T03:10:40;8.69;8.31;6.42;3.87;31.30;31.23;30.75;28.21;21.33;0.85
70689;SPS30;58266;52.166;5.290;2023-02-04T03:12:41;8.11;7.76;6.03;3.68;29.74;29.67;29.23;26.89;20.45;0.87
70689;SPS30;58266;52.166;5.290;2023-02-04T03:14:42;8.62;8.23;6.28;3.65;29.58;29.51;29.01;26.39;19.59;0.89
70689;SPS30;58266;52.166;5.290;2023-02-04T03:16:42;8.36;7.98;6.07;3.52;28.48;28.41;27.93;25.37;18.78;0.88
70689;SPS30;58266;52.166;5.290;2023-02-04T03:18:42;8.38;8.01;6.12;3.59;29.07;29.00;28.53;26.00;19.38;0.89
70689;SPS30;58266;52.166;5.290;2023-02-04T03:20:43;8.32;7.96;6.16;3.71;30.02;29.95;29.49;27.06;20.46;0.86
70689;SPS30;58266;52.166;5.290;2023-02-04T03:22:43;7.86;7.54;5.96;3.79;30.61;30.55;30.15;28.01;21.72;0.83
70689;SPS30;58266;52.166;5.290;2023-02-04T03:24:43;7.16;6.86;5.39;3.37;27.20;27.15;26.77;24.78;19.07;0.84
70689;SPS30;58266;52.166;5.290;2023-02-04T03:26:43;7.64;7.32;5.68;3.45;27.90;27.84;27.42;25.21;19.15;0.87
70689;SPS30;58266;52.166;5.290;2023-02-04T03:28:44;7.83;7.50;5.82;3.55;28.66;28.60;28.17;25.91;19.70;0.84
70689;SPS30;58266;52.166;5.290;2023-02-04T03:30:44;7.42;7.11;5.58;3.49;28.16;28.10;27.72;25.65;19.73;0.82
70689;SPS30;58266;52.166;5.290;2023-02-04T03:32:44;7.08;6.79;5.34;3.35;27.07;27.01;26.64;24.68;19.03;0.83
70689;SPS30;58266;52.166;5.290;2023-02-04T03:34:44;6.60;6.36;5.16;3.48;28.01;27.96;27.65;26.02;20.67;0.79
70689;SPS30;58266;52.166;5.290;2023-02-04T03:36:45;6.38;6.13;4.92;3.22;25.99;25.95;25.64;23.98;18.84;0.82
70689;SPS30;58266;52.166;5.290;2023-02-04T03:38:45;7.75;7.43;5.82;3.63;29.34;29.28;28.87;26.71;20.53;0.83
70689;SPS30;58266;52.166;5.290;2023-02-04T03:40:45;6.53;6.27;4.98;3.20;25.81;25.76;25.43;23.68;18.44;0.81
70689;SPS30;58266;52.166;5.290;2023-02-04T03:42:45;8.35;7.98;6.17;3.71;29.97;29.90;29.44;26.99;20.38;0.85
70689;SPS30;58266;52.166;5.290;2023-02-04T03:44:45;7.44;7.15;5.65;3.60;29.02;28.96;28.58;26.56;20.60;0.79
70689;SPS30;58266;52.166;5.290;2023-02-04T03:46:45;6.72;6.46;5.17;3.37;27.16;27.11;26.78;25.02;19.61;0.77
70689;SPS30;58266;52.166;5.290;2023-02-04T03:48:45;6.78;6.51;5.16;3.31;26.69;26.64;26.30;24.47;19.03;0.78
70689;SPS30;58266;52.166;5.290;2023-02-04T03:50:45;6.96;6.69;5.34;3.47;27.99;27.94;27.59;25.76;20.17;0.79
70689;SPS30;58266;52.166;5.290;2023-02-04T03:52:46;6.65;6.40;5.12;3.35;27.03;26.98;26.66;24.92;19.57;0.80
70689;SPS30;58266;52.166;5.290;2023-02-04T03:54:46;7.06;6.78;5.35;3.38;27.29;27.24;26.87;24.93;19.29;0.82
70689;SPS30;58266;52.166;5.290;2023-02-04T03:56:46;8.12;7.77;6.05;3.71;29.94;29.87;29.44;27.11;20.65;0.84
70689;SPS30;58266;52.166;5.290;2023-02-04T03:58:47;6.88;6.61;5.27;3.41;27.53;27.48;27.14;25.31;19.79;0.82
70689;SPS30;58266;52.166;5.290;2023-02-04T04:00:47;6.58;6.34;5.11;3.40;27.37;27.32;27.01;25.34;20.02;0.80
70689;SPS30;58266;52.166;5.290;2023-02-04T04:02:47;7.02;6.76;5.45;3.61;29.12;29.07;28.74;26.95;21.28;0.79
70689;SPS30;58266;52.166;5.290;2023-02-04T04:04:47;6.48;6.25;5.10;3.49;28.06;28.02;27.72;26.15;20.89;0.79
70689;SPS30;58266;52.166;5.290;2023-02-04T04:06:48;6.52;6.28;5.09;3.42;27.56;27.52;27.21;25.59;20.31;0.81
70689;SPS30;58266;52.166;5.290;2023-02-04T04:08:48;7.57;7.28;5.83;3.81;30.74;30.68;30.31;28.34;22.25;0.82
70689;SPS30;58266;52.166;5.290;2023-02-04T04:10:48;7.34;7.06;5.64;3.68;29.64;29.58;29.22;27.29;21.39;0.82
70689;SPS30;58266;52.166;5.290;2023-02-04T04:12:48;6.69;6.44;5.15;3.37;27.16;27.11;26.78;25.03;19.64;0.82
70689;SPS30;58266;52.166;5.290;2023-02-04T04:14:48;6.71;6.46;5.19;3.43;27.66;27.61;27.29;25.57;20.15;0.83
70689;SPS30;58266;52.166;5.290;2023-02-04T04:16:48;6.75;6.50;5.24;3.48;28.01;27.96;27.64;25.92;20.47;0.83
70689;SPS30;58266;52.166;5.290;2023-02-04T04:18:48;6.28;6.04;4.84;3.18;25.63;25.58;25.28;23.65;18.59;0.83
70689;SPS30;58266;52.166;5.290;2023-02-04T04:20:48;6.65;6.39;5.06;3.24;26.12;26.07;25.73;23.93;18.60;0.85
70689;SPS30;58266;52.166;5.290;2023-02-04T04:22:49;7.00;6.72;5.32;3.40;27.47;27.42;27.06;25.17;19.57;0.82
70689;SPS30;58266;52.166;5.290;2023-02-04T04:24:49;6.57;6.30;4.98;3.16;25.48;25.43;25.09;23.30;18.05;0.85
70689;SPS30;58266;52.166;5.290;2023-02-04T04:26:49;7.43;7.13;5.63;3.56;28.76;28.70;28.32;26.28;20.34;0.84
70689;SPS30;58266;52.166;5.290;2023-02-04T04:28:49;7.15;6.87;5.45;3.51;28.29;28.23;27.88;25.96;20.22;0.83
70689;SPS30;58266;52.166;5.290;2023-02-04T04:30:49;6.76;6.49;5.14;3.29;26.56;26.51;26.17;24.34;18.93;0.84
70689;SPS30;58266;52.166;5.290;2023-02-04T04:32:49;5.77;5.54;4.42;2.86;23.07;23.02;22.74;21.21;16.58;0.83
70689;SPS30;58266;52.166;5.290;2023-02-04T04:34:49;6.71;6.45;5.19;3.44;27.71;27.66;27.34;25.62;20.21;0.82
70689;SPS30;58266;52.166;5.290;2023-02-04T04:36:49;6.80;6.55;5.29;3.53;28.46;28.41;28.09;26.37;20.88;0.81
70689;SPS30;58266;52.166;5.290;2023-02-04T04:38:49;7.49;7.20;5.73;3.71;29.88;29.83;29.46;27.47;21.45;0.83
70689;SPS30;58266;52.166;5.290;2023-02-04T04:40:49;8.03;7.69;6.03;3.76;30.37;30.30;29.88;27.64;21.24;0.85
70689;SPS30;58266;52.166;5.290;2023-02-04T04:42:50;8.03;7.70;6.06;3.82;30.83;30.77;30.35;28.14;21.72;0.85
70689;SPS30;58266;52.166;5.290;2023-02-04T04:44:50;6.73;6.46;5.12;3.27;26.37;26.32;25.97;24.15;18.76;0.83
70689;SPS30;58266;52.166;5.290;2023-02-04T04:46:50;7.64;7.33;5.78;3.66;29.54;29.48;29.09;26.99;20.89;0.84
70689;SPS30;58266;52.166;5.290;2023-02-04T04:48:50;7.37;7.08;5.65;3.66;29.51;29.45;29.09;27.14;21.22;0.81
70689;SPS30;58266;52.166;5.290;2023-02-04T04:50:50;6.90;6.62;5.24;3.33;26.88;26.82;26.47;24.59;19.07;0.83
70689;SPS30;58266;52.166;5.290;2023-02-04T04:52:50;6.48;6.24;5.02;3.33;26.81;26.77;26.46;24.80;19.57;0.80
70689;SPS30;58266;52.166;5.290;2023-02-04T04:54:50;6.72;6.48;5.26;3.55;28.57;28.53;28.22;26.55;21.10;0.78
70689;SPS30;58266;52.166;5.290;2023-02-04T04:56:50;6.05;5.84;4.79;3.29;26.50;26.45;26.18;24.74;19.82;0.75
70689;SPS30;58266;52.166;5.290;2023-02-04T04:58:50;6.40;6.17;4.98;3.33;26.82;26.78;26.48;24.86;19.69;0.78
70689;SPS30;58266;52.166;5.290;2023-02-04T05:00:50;6.00;5.78;4.66;3.11;25.04;24.99;24.71;23.19;18.34;0.78
70689;SPS30;58266;52.166;5.290;2023-02-04T05:02:51;6.06;5.85;4.82;3.35;26.92;26.88;26.61;25.19;20.25;0.74
70689;SPS30;58266;52.166;5.290;2023-02-04T05:04:51;5.44;5.27;4.42;3.19;25.64;25.60;25.38;24.21;19.73;0.74
70689;SPS30;58266;52.166;5.290;2023-02-04T05:06:51;6.29;6.06;4.93;3.34;26.92;26.87;26.59;25.04;19.94;0.79
70689;SPS30;58266;52.166;5.290;2023-02-04T05:08:51;6.37;6.15;5.04;3.48;27.99;27.94;27.66;26.15;20.96;0.77
70689;SPS30;58266;52.166;5.290;2023-02-04T05:10:51;6.53;6.31;5.24;3.69;29.71;29.67;29.39;27.91;22.57;0.76
70689;SPS30;58266;52.166;5.290;2023-02-04T05:12:51;5.73;5.55;4.65;3.34;26.87;26.84;26.61;25.36;20.65;0.76
70689;SPS30;58266;52.166;5.290;2023-02-04T05:14:52;6.71;6.49;5.38;3.78;30.43;30.39;30.10;28.57;23.09;0.77
70689;SPS30;58266;52.166;5.290;2023-02-04T05:16:52;6.69;6.45;5.27;3.61;29.05;29.01;28.71;27.09;21.66;0.77
70689;SPS30;58266;52.166;5.290;2023-02-04T05:18:52;6.82;6.58;5.38;3.68;29.59;29.55;29.24;27.59;22.05;0.75
70689;SPS30;58266;52.166;5.290;2023-02-04T05:20:52;6.49;6.27;5.16;3.59;28.90;28.86;28.57;27.06;21.77;0.75
70689;SPS30;58266;52.166;5.290;2023-02-04T05:22:52;5.91;5.71;4.69;3.25;26.12;26.08;25.82;24.42;19.60;0.77
70689;SPS30;58266;52.166;5.290;2023-02-04T05:24:52;6.42;6.19;5.08;3.50;28.19;28.14;27.86;26.33;21.11;0.77
70689;SPS30;58266;52.166;5.290;2023-02-04T05:26:53;6.57;6.33;5.17;3.54;28.48;28.43;28.13;26.55;21.21;0.77
70689;SPS30;58266;52.166;5.290;2023-02-04T05:28:54;6.55;6.31;5.14;3.49;28.09;28.04;27.74;26.14;20.83;0.77
70689;SPS30;58266;52.166;5.290;2023-02-04T05:30:55;6.32;6.11;5.05;3.53;28.42;28.38;28.11;26.65;21.49;0.77
70689;SPS30;58266;52.166;5.290;2023-02-04T05:32:55;7.05;6.81;5.61;3.91;31.43;31.38;31.08;29.43;23.69;0.78
70689;SPS30;58266;52.166;5.290;2023-02-04T05:34:55;7.08;6.83;5.58;3.82;30.79;30.74;30.43;28.72;22.97;0.78
70689;SPS30;58266;52.166;5.290;2023-02-04T05:36:55;5.89;5.71;4.78;3.44;27.67;27.63;27.39;26.11;21.27;0.73
70689;SPS30;58266;52.166;5.290;2023-02-04T05:38:55;5.39;5.23;4.43;3.26;26.22;26.19;25.98;24.88;20.42;0.72
70689;SPS30;58266;52.166;5.290;2023-02-04T05:40:55;5.58;5.41;4.60;3.41;27.38;27.35;27.14;26.01;21.40;0.72
70689;SPS30;58266;52.166;5.290;2023-02-04T05:42:55;5.20;5.07;4.38;3.35;26.87;26.85;26.67;25.71;21.37;0.69
70689;SPS30;58266;52.166;5.290;2023-02-04T05:44:55;5.71;5.56;4.80;3.65;29.28;29.25;29.06;27.99;23.23;0.71
70689;SPS30;58266;52.166;5.290;2023-02-04T05:46:55;6.01;5.82;4.88;3.51;28.23;28.19;27.95;26.65;21.71;0.73
70689;SPS30;58266;52.166;5.290;2023-02-04T05:48:56;6.19;5.98;4.92;3.41;27.48;27.44;27.16;25.71;20.66;0.76
70689;SPS30;58266;52.166;5.290;2023-02-04T05:50:56;6.15;5.94;4.90;3.43;27.58;27.54;27.27;25.85;20.83;0.76
70689;SPS30;58266;52.166;5.290;2023-02-04T05:52:56;6.34;6.12;5.02;3.47;27.94;27.89;27.61;26.11;20.96;0.78
70689;SPS30;58266;52.166;5.290;2023-02-04T05:54:56;6.52;6.28;5.08;3.41;27.45;27.40;27.09;25.46;20.18;0.79
70689;SPS30;58266;52.166;5.290;2023-02-04T05:56:56;6.43;6.19;5.02;3.39;27.28;27.24;26.94;25.35;20.14;0.78
70689;SPS30;58266;52.166;5.290;2023-02-04T05:58:56;6.86;6.62;5.42;3.73;30.06;30.02;29.71;28.08;22.50;0.77
70689;SPS30;58266;52.166;5.290;2023-02-04T06:00:56;6.56;6.34;5.23;3.65;29.37;29.33;29.04;27.52;22.17;0.77
70689;SPS30;58266;52.166;5.290;2023-02-04T06:02:57;6.20;5.99;4.97;3.51;28.24;28.20;27.94;26.54;21.47;0.77
70689;SPS30;58266;52.166;5.290;2023-02-04T06:04:57;6.17;5.95;4.87;3.33;26.83;26.79;26.51;25.03;20.02;0.79
70689;SPS30;58266;52.166;5.290;2023-02-04T06:06:57;6.18;5.95;4.81;3.22;25.93;25.88;25.59;24.04;19.04;0.80
70689;SPS30;58266;52.166;5.290;2023-02-04T06:08:57;5.95;5.74;4.70;3.23;26.00;25.96;25.70;24.27;19.44;0.77
70689;SPS30;58266;52.166;5.290;2023-02-04T06:10:57;5.36;5.19;4.31;3.06;24.60;24.56;24.34;23.13;18.74;0.74
70689;SPS30;58266;52.166;5.290;2023-02-04T06:12:57;5.03;4.88;4.13;3.02;24.31;24.27;24.08;23.04;18.89;0.72
70689;SPS30;58266;52.166;5.290;2023-02-04T06:14:57;5.10;4.94;4.15;3.01;24.20;24.17;23.97;22.88;18.68;0.75
70689;SPS30;58266;52.166;5.290;2023-02-04T06:16:57;5.59;5.40;4.47;3.14;25.25;25.22;24.98;23.70;19.13;0.76
70689;SPS30;58266;52.166;5.290;2023-02-04T06:18:57;6.48;6.27;5.20;3.66;29.44;29.40;29.12;27.65;22.35;0.76
70689;SPS30;58266;52.166;5.290;2023-02-04T06:20:58;6.03;5.83;4.84;3.42;27.50;27.46;27.20;25.84;20.91;0.76
70689;SPS30;58266;52.166;5.290;2023-02-04T06:22:58;5.31;5.15;4.33;3.14;25.22;25.19;24.98;23.84;19.47;0.74
70689;SPS30;58266;52.166;5.290;2023-02-04T06:24:58;5.07;4.92;4.16;3.05;24.47;24.44;24.24;23.19;19.00;0.73
70689;SPS30;58266;52.166;5.290;2023-02-04T06:26:58;5.52;5.34;4.46;3.19;25.62;25.58;25.36;24.14;19.61;0.75
70689;SPS30;58266;52.166;5.290;2023-02-04T06:28:58;6.48;6.25;5.09;3.46;27.83;27.79;27.49;25.91;20.65;0.78
70689;SPS30;58266;52.166;5.290;2023-02-04T06:30:58;6.48;6.24;5.02;3.33;26.87;26.82;26.51;24.86;19.63;0.78
70689;SPS30;58266;52.166;5.290;2023-02-04T06:32:58;5.69;5.48;4.42;2.95;23.74;23.70;23.43;21.99;17.40;0.78
70689;SPS30;58266;52.166;5.290;2023-02-04T06:34:58;6.21;5.97;4.78;3.13;25.22;25.17;24.87;23.25;18.26;0.80
70689;SPS30;58266;52.166;5.290;2023-02-04T06:36:59;6.27;6.02;4.78;3.07;24.74;24.69;24.38;22.69;17.67;0.82
70689;SPS30;58266;52.166;5.290;2023-02-04T06:38:59;6.11;5.88;4.71;3.10;25.01;24.96;24.67;23.09;18.17;0.79
70689;SPS30;58266;52.166;5.290;2023-02-04T06:40:59;5.57;5.37;4.38;2.99;24.10;24.06;23.81;22.47;17.95;0.78
70689;SPS30;58266;52.166;5.290;2023-02-04T06:43:01;5.70;5.49;4.45;3.00;24.13;24.09;23.82;22.41;17.79;0.78
70689;SPS30;58266;52.166;5.290;2023-02-04T06:45:01;5.84;5.63;4.54;3.03;24.41;24.36;24.09;22.61;17.89;0.79
70689;SPS30;58266;52.166;5.290;2023-02-04T06:47:02;5.74;5.54;4.55;3.15;25.31;25.27;25.02;23.67;19.00;0.77
70689;SPS30;58266;52.166;5.290;2023-02-04T06:49:02;6.69;6.47;5.34;3.74;30.09;30.05;29.76;28.21;22.75;0.76
70689;SPS30;58266;52.166;5.290;2023-02-04T06:51:02;5.60;5.42;4.50;3.18;25.61;25.57;25.34;24.08;19.49;0.76
70689;SPS30;58266;52.166;5.290;2023-02-04T06:53:03;5.36;5.18;4.31;3.07;24.66;24.62;24.40;23.20;18.81;0.76
70689;SPS30;58266;52.166;5.290;2023-02-04T06:55:03;5.66;5.51;4.74;3.59;28.84;28.81;28.61;27.54;22.83;0.71
70689;SPS30;58266;52.166;5.290;2023-02-04T06:57:03;5.64;5.48;4.68;3.50;28.12;28.09;27.88;26.77;22.10;0.72
70689;SPS30;58266;52.166;5.290;2023-02-04T06:59:03;5.35;5.21;4.49;3.41;27.34;27.31;27.13;26.12;21.67;0.71
70689;SPS30;58266;52.166;5.290;2023-02-04T07:01:03;5.05;4.93;4.31;3.36;26.98;26.96;26.80;25.93;21.69;0.71
70689;SPS30;58266;52.166;5.290;2023-02-04T07:03:03;4.82;4.70;4.10;3.17;25.46;25.43;25.28;24.43;20.39;0.71
70689;SPS30;58266;52.166;5.290;2023-02-04T07:05:04;5.34;5.20;4.47;3.37;27.08;27.05;26.86;25.84;21.40;0.74
70689;SPS30;58266;52.166;5.290;2023-02-04T07:07:04;5.72;5.56;4.77;3.59;28.79;28.76;28.55;27.45;22.70;0.73
70689;SPS30;58266;52.166;5.290;2023-02-04T07:09:04;5.51;5.36;4.61;3.48;27.94;27.91;27.72;26.67;22.09;0.72
70689;SPS30;58266;52.166;5.290;2023-02-04T07:11:04;5.50;5.35;4.62;3.52;28.25;28.22;28.03;27.01;22.43;0.72
70689;SPS30;58266;52.166;5.290;2023-02-04T07:13:04;5.22;5.09;4.43;3.41;27.37;27.34;27.17;26.23;21.86;0.71
70689;SPS30;58266;52.166;5.290;2023-02-04T07:15:04;5.57;5.43;4.74;3.69;29.57;29.54;29.36;28.39;23.72;0.71
70689;SPS30;58266;52.166;5.290;2023-02-04T07:17:05;5.22;5.09;4.47;3.51;28.14;28.12;27.95;27.07;22.69;0.70
70689;SPS30;58266;52.166;5.290;2023-02-04T07:19:05;5.16;5.05;4.50;3.62;28.98;28.96;28.81;28.02;23.65;0.68
70689;SPS30;58266;52.166;5.290;2023-02-04T07:21:05;5.14;5.03;4.51;3.66;29.33;29.30;29.16;28.41;24.05;0.67
70689;SPS30;58266;52.166;5.290;2023-02-04T07:23:05;4.69;4.60;4.17;3.44;27.54;27.52;27.41;26.77;22.77;0.67
70689;SPS30;58266;52.166;5.290;2023-02-04T07:25:05;5.40;5.29;4.73;3.82;30.64;30.61;30.47;29.66;25.08;0.70
70689;SPS30;58266;52.166;5.290;2023-02-04T07:27:06;5.52;5.39;4.74;3.72;29.85;29.83;29.66;28.73;24.09;0.71
70689;SPS30;58266;52.166;5.290;2023-02-04T07:29:06;5.57;5.44;4.76;3.71;29.78;29.75;29.57;28.61;23.94;0.70
70689;SPS30;58266;52.166;5.290;2023-02-04T07:31:06;5.66;5.54;4.91;3.92;31.40;31.37;31.21;30.31;25.53;0.68
70689;SPS30;58266;52.166;5.290;2023-02-04T07:33:06;5.35;5.23;4.66;3.74;29.95;29.93;29.78;28.95;24.42;0.67